sensor_id;sensor_type;location;lat;lon;timestamp;temperature;humidity
13694;DHT22;6919;52.344;14.518;2023-07-02T00:00:23;18.20;99.90
13694;DHT22;6919;52.344;14.518;2023-07-02T00:02:51;18.30;99.90
13694;DHT22;6919;52.344;14.518;2023-07-02T00:05:19;18.20;99.90
13694;DHT22;6919;52.344;14.518;2023-07-02T00:07:48;18.20;99.90
13694;DHT22;6919;52.344;14.518;2023-07-02T00:10:16;18.20;99.90
13694;DHT22;6919;52.344;14.518;2023-07-02T00:12:44;18.20;99.90
13694;DHT22;6919;52.344;14.518;2023-07-02T00:15:13;18.10;99.90
13694;DHT22;6919;52.344;14.518;2023-07-02T00:17:42;18.10;99.90
13694;DHT22;6919;52.344;14.518;2023-07-02T00:20:11;18.20;99.90
13694;DHT22;6919;52.344;14.518;2023-07-02T00:22:43;18.10;99.90
13694;DHT22;6919;52.344;14.518;2023-07-02T00:25:13;18.10;99.90
13694;DHT22;6919;52.344;14.518;2023-07-02T00:27:43;18.10;99.90
13694;DHT22;6919;52.344;14.518;2023-07-02T00:30:12;18.10;99.90
13694;DHT22;6919;52.344;14.518;2023-07-02T00:32:42;18.20;99.90
13694;DHT22;6919;52.344;14.518;2023-07-02T00:35:10;18.30;99.90
13694;DHT22;6919;52.344;14.518;2023-07-02T00:37:38;18.30;99.90
13694;DHT22;6919;52.344;14.518;2023-07-02T00:40:07;18.20;99.90
13694;DHT22;6919;52.344;14.518;2023-07-02T00:42:36;18.30;99.90
13694;DHT22;6919;52.344;14.518;2023-07-02T00:45:06;18.20;99.90
13694;DHT22;6919;52.344;14.518;2023-07-02T00:47:35;18.20;99.90
13694;DHT22;6919;52.344;14.518;2023-07-02T00:50:06;18.20;99.90
13694;DHT22;6919;52.344;14.518;2023-07-02T00:52:36;18.20;99.90
13694;DHT22;6919;52.344;14.518;2023-07-02T00:55:06;18.10;99.90
13694;DHT22;6919;52.344;14.518;2023-07-02T00:57:35;18.20;99.90
13694;DHT22;6919;52.344;14.518;2023-07-02T01:00:04;18.30;99.90
13694;DHT22;6919;52.344;14.518;2023-07-02T01:02:33;18.30;99.90
13694;DHT22;6919;52.344;14.518;2023-07-02T01:05:02;18.30;99.90
13694;DHT22;6919;52.344;14.518;2023-07-02T01:07:32;18.30;99.90
13694;DHT22;6919;52.344;14.518;2023-07-02T01:10:00;18.30;99.90
13694;DHT22;6919;52.344;14.518;2023-07-02T01:12:28;18.30;99.90
13694;DHT22;6919;52.344;14.518;2023-07-02T01:15:00;18.40;99.90
13694;DHT22;6919;52.344;14.518;2023-07-02T01:17:31;18.40;99.90
13694;DHT22;6919;52.344;14.518;2023-07-02T01:20:10;18.30;99.90
13694;DHT22;6919;52.344;14.518;2023-07-02T01:22:40;18.40;99.90
13694;DHT22;6919;52.344;14.518;2023-07-02T01:25:11;18.30;99.90
13694;DHT22;6919;52.344;14.518;2023-07-02T01:27:40;18.20;99.90
13694;DHT22;6919;52.344;14.518;2023-07-02T01:30:09;18.10;99.90
13694;DHT22;6919;52.344;14.518;2023-07-02T01:32:38;17.80;99.90
13694;DHT22;6919;52.344;14.518;2023-07-02T01:35:09;17.80;99.90
13694;DHT22;6919;52.344;14.518;2023-07-02T01:37:37;17.70;99.90
13694;DHT22;6919;52.344;14.518;2023-07-02T01:40:07;17.70;99.90
13694;DHT22;6919;52.344;14.518;2023-07-02T01:42:36;17.70;99.90
13694;DHT22;6919;52.344;14.518;2023-07-02T01:45:09;17.60;99.90
13694;DHT22;6919;52.344;14.518;2023-07-02T01:47:37;17.60;99.90
13694;DHT22;6919;52.344;14.518;2023-07-02T01:50:08;17.60;99.90
13694;DHT22;6919;52.344;14.518;2023-07-02T01:52:37;17.50;99.90
13694;DHT22;6919;52.344;14.518;2023-07-02T01:55:06;17.50;99.90
13694;DHT22;6919;52.344;14.518;2023-07-02T01:57:35;17.50;99.90
13694;DHT22;6919;52.344;14.518;2023-07-02T02:00:04;17.40;99.90
13694;DHT22;6919;52.344;14.518;2023-07-02T02:02:33;17.40;99.90
13694;DHT22;6919;52.344;14.518;2023-07-02T02:05:02;17.50;99.90
13694;DHT22;6919;52.344;14.518;2023-07-02T02:07:32;17.40;99.90
13694;DHT22;6919;52.344;14.518;2023-07-02T02:10:01;17.30;99.90
13694;DHT22;6919;52.344;14.518;2023-07-02T02:12:30;17.30;99.90
13694;DHT22;6919;52.344;14.518;2023-07-02T02:14:58;17.40;99.90
13694;DHT22;6919;52.344;14.518;2023-07-02T02:17:27;17.40;99.90
13694;DHT22;6919;52.344;14.518;2023-07-02T02:19:55;17.40;99.90
13694;DHT22;6919;52.344;14.518;2023-07-02T02:22:23;17.40;99.90
13694;DHT22;6919;52.344;14.518;2023-07-02T02:24:53;17.50;99.90
13694;DHT22;6919;52.344;14.518;2023-07-02T02:27:21;17.60;99.90
13694;DHT22;6919;52.344;14.518;2023-07-02T02:29:49;17.60;99.90
13694;DHT22;6919;52.344;14.518;2023-07-02T02:32:18;17.60;99.90
13694;DHT22;6919;52.344;14.518;2023-07-02T02:34:48;17.60;99.90
13694;DHT22;6919;52.344;14.518;2023-07-02T02:37:16;17.70;99.90
13694;DHT22;6919;52.344;14.518;2023-07-02T02:39:44;17.70;99.90
13694;DHT22;6919;52.344;14.518;2023-07-02T02:42:14;17.70;99.90
13694;DHT22;6919;52.344;14.518;2023-07-02T02:44:42;17.70;99.90
13694;DHT22;6919;52.344;14.518;2023-07-02T02:47:10;17.70;99.90
13694;DHT22;6919;52.344;14.518;2023-07-02T02:49:39;17.70;99.90
13694;DHT22;6919;52.344;14.518;2023-07-02T02:52:07;17.70;99.90
13694;DHT22;6919;52.344;14.518;2023-07-02T02:54:35;17.60;99.90
13694;DHT22;6919;52.344;14.518;2023-07-02T02:57:04;17.70;99.90
13694;DHT22;6919;52.344;14.518;2023-07-02T02:59:33;17.70;99.90
13694;DHT22;6919;52.344;14.518;2023-07-02T03:02:02;17.60;99.90
13694;DHT22;6919;52.344;14.518;2023-07-02T03:04:31;17.70;99.90
13694;DHT22;6919;52.344;14.518;2023-07-02T03:06:59;17.70;99.90
13694;DHT22;6919;52.344;14.518;2023-07-02T03:09:27;17.70;99.90
13694;DHT22;6919;52.344;14.518;2023-07-02T03:11:55;17.70;99.90
13694;DHT22;6919;52.344;14.518;2023-07-02T03:14:24;17.80;99.90
13694;DHT22;6919;52.344;14.518;2023-07-02T03:16:53;17.90;99.90
13694;DHT22;6919;52.344;14.518;2023-07-02T03:19:22;17.90;99.90
13694;DHT22;6919;52.344;14.518;2023-07-02T03:21:50;17.80;99.90
13694;DHT22;6919;52.344;14.518;2023-07-02T03:24:19;17.70;99.90
13694;DHT22;6919;52.344;14.518;2023-07-02T03:26:47;17.80;99.90
13694;DHT22;6919;52.344;14.518;2023-07-02T03:29:15;17.80;99.90
13694;DHT22;6919;52.344;14.518;2023-07-02T03:31:46;17.90;99.90
13694;DHT22;6919;52.344;14.518;2023-07-02T03:34:16;17.80;99.90
13694;DHT22;6919;52.344;14.518;2023-07-02T03:36:44;17.80;99.90
13694;DHT22;6919;52.344;14.518;2023-07-02T03:39:12;17.90;99.90
13694;DHT22;6919;52.344;14.518;2023-07-02T03:41:40;17.80;99.90
13694;DHT22;6919;52.344;14.518;2023-07-02T03:44:09;17.80;99.90
13694;DHT22;6919;52.344;14.518;2023-07-02T03:46:37;17.90;99.90
13694;DHT22;6919;52.344;14.518;2023-07-02T03:49:06;17.80;99.90
13694;DHT22;6919;52.344;14.518;2023-07-02T03:51:35;17.70;99.90
13694;DHT22;6919;52.344;14.518;2023-07-02T03:54:05;17.80;99.90
13694;DHT22;6919;52.344;14.518;2023-07-02T03:56:33;17.80;99.90
13694;DHT22;6919;52.344;14.518;2023-07-02T03:59:02;17.70;99.90
13694;DHT22;6919;52.344;14.518;2023-07-02T04:01:30;17.80;99.90
13694;DHT22;6919;52.344;14.518;2023-07-02T04:03:58;17.90;99.90
13694;DHT22;6919;52.344;14.518;2023-07-02T04:06:26;18.00;99.90
13694;DHT22;6919;52.344;14.518;2023-07-02T04:08:56;18.10;99.90
13694;DHT22;6919;52.344;14.518;2023-07-02T04:11:24;18.10;99.90
13694;DHT22;6919;52.344;14.518;2023-07-02T04:13:53;17.90;99.90
13694;DHT22;6919;52.344;14.518;2023-07-02T04:16:21;17.90;99.90
13694;DHT22;6919;52.344;14.518;2023-07-02T04:18:49;18.00;99.90
13694;DHT22;6919;52.344;14.518;2023-07-02T04:21:17;17.80;99.90
13694;DHT22;6919;52.344;14.518;2023-07-02T04:23:46;17.70;99.90
13694;DHT22;6919;52.344;14.518;2023-07-02T04:26:15;17.70;99.90
13694;DHT22;6919;52.344;14.518;2023-07-02T04:29:04;17.60;99.90
13694;DHT22;6919;52.344;14.518;2023-07-02T04:31:32;17.70;99.90
13694;DHT22;6919;52.344;14.518;2023-07-02T04:34:00;17.50;99.90
13694;DHT22;6919;52.344;14.518;2023-07-02T04:36:29;17.60;99.90
13694;DHT22;6919;52.344;14.518;2023-07-02T04:38:58;17.50;99.90
13694;DHT22;6919;52.344;14.518;2023-07-02T04:41:27;17.70;99.90
13694;DHT22;6919;52.344;14.518;2023-07-02T04:43:56;17.80;99.90
13694;DHT22;6919;52.344;14.518;2023-07-02T04:46:24;17.70;99.90
13694;DHT22;6919;52.344;14.518;2023-07-02T04:48:53;17.60;99.90
13694;DHT22;6919;52.344;14.518;2023-07-02T04:51:21;17.70;99.90
13694;DHT22;6919;52.344;14.518;2023-07-02T04:53:49;17.70;99.90
13694;DHT22;6919;52.344;14.518;2023-07-02T04:56:17;17.60;99.90
13694;DHT22;6919;52.344;14.518;2023-07-02T04:58:47;17.60;99.90
13694;DHT22;6919;52.344;14.518;2023-07-02T05:01:15;17.60;99.90
13694;DHT22;6919;52.344;14.518;2023-07-02T05:03:43;17.70;99.90
13694;DHT22;6919;52.344;14.518;2023-07-02T05:06:12;17.80;99.90
13694;DHT22;6919;52.344;14.518;2023-07-02T05:08:40;17.80;99.90
13694;DHT22;6919;52.344;14.518;2023-07-02T05:11:09;17.80;99.90
13694;DHT22;6919;52.344;14.518;2023-07-02T05:13:38;17.90;99.90
13694;DHT22;6919;52.344;14.518;2023-07-02T05:16:08;17.80;99.90
13694;DHT22;6919;52.344;14.518;2023-07-02T05:18:37;17.90;99.90
13694;DHT22;6919;52.344;14.518;2023-07-02T05:21:05;18.00;99.90
13694;DHT22;6919;52.344;14.518;2023-07-02T05:23:34;18.00;99.90
13694;DHT22;6919;52.344;14.518;2023-07-02T05:26:02;18.10;99.90
13694;DHT22;6919;52.344;14.518;2023-07-02T05:28:30;18.20;99.90
13694;DHT22;6919;52.344;14.518;2023-07-02T05:30:59;18.10;99.90
13694;DHT22;6919;52.344;14.518;2023-07-02T05:33:29;18.10;99.90
13694;DHT22;6919;52.344;14.518;2023-07-02T05:36:00;18.00;99.90
13694;DHT22;6919;52.344;14.518;2023-07-02T05:38:28;18.00;99.90
13694;DHT22;6919;52.344;14.518;2023-07-02T05:40:56;18.10;99.90
13694;DHT22;6919;52.344;14.518;2023-07-02T05:43:24;18.20;99.90
13694;DHT22;6919;52.344;14.518;2023-07-02T05:45:53;18.20;99.90
13694;DHT22;6919;52.344;14.518;2023-07-02T05:48:21;18.30;99.90
13694;DHT22;6919;52.344;14.518;2023-07-02T05:50:51;18.40;99.90
13694;DHT22;6919;52.344;14.518;2023-07-02T05:53:19;18.40;99.90
13694;DHT22;6919;52.344;14.518;2023-07-02T05:55:47;18.50;99.90
13694;DHT22;6919;52.344;14.518;2023-07-02T05:58:16;18.70;99.90
13694;DHT22;6919;52.344;14.518;2023-07-02T06:00:44;18.80;99.90
13694;DHT22;6919;52.344;14.518;2023-07-02T06:03:17;18.80;99.90
13694;DHT22;6919;52.344;14.518;2023-07-02T06:05:47;19.10;99.90
13694;DHT22;6919;52.344;14.518;2023-07-02T06:08:18;19.30;99.90
13694;DHT22;6919;52.344;14.518;2023-07-02T06:10:47;19.50;99.90
13694;DHT22;6919;52.344;14.518;2023-07-02T06:13:16;19.30;99.90
13694;DHT22;6919;52.344;14.518;2023-07-02T06:15:45;19.30;99.90
13694;DHT22;6919;52.344;14.518;2023-07-02T06:18:14;19.40;99.90
13694;DHT22;6919;52.344;14.518;2023-07-02T06:20:49;19.50;99.90
13694;DHT22;6919;52.344;14.518;2023-07-02T06:23:19;19.60;99.90
13694;DHT22;6919;52.344;14.518;2023-07-02T06:25:47;19.30;99.90
13694;DHT22;6919;52.344;14.518;2023-07-02T06:28:15;19.20;99.90
13694;DHT22;6919;52.344;14.518;2023-07-02T06:30:44;19.30;99.90
13694;DHT22;6919;52.344;14.518;2023-07-02T06:33:12;19.40;99.90
13694;DHT22;6919;52.344;14.518;2023-07-02T06:35:41;19.50;99.90
13694;DHT22;6919;52.344;14.518;2023-07-02T06:38:09;19.80;99.90
13694;DHT22;6919;52.344;14.518;2023-07-02T06:40:39;19.90;99.90
13694;DHT22;6919;52.344;14.518;2023-07-02T06:43:07;19.90;99.90
13694;DHT22;6919;52.344;14.518;2023-07-02T06:45:35;19.80;99.90
13694;DHT22;6919;52.344;14.518;2023-07-02T06:48:04;20.10;99.90
13694;DHT22;6919;52.344;14.518;2023-07-02T06:50:33;20.30;99.90
13694;DHT22;6919;52.344;14.518;2023-07-02T06:53:01;20.50;99.90
13694;DHT22;6919;52.344;14.518;2023-07-02T06:55:29;20.50;99.90
13694;DHT22;6919;52.344;14.518;2023-07-02T06:57:59;20.30;99.90
13694;DHT22;6919;52.344;14.518;2023-07-02T07:00:27;20.40;99.90
13694;DHT22;6919;52.344;14.518;2023-07-02T07:02:58;20.50;99.90
13694;DHT22;6919;52.344;14.518;2023-07-02T07:05:27;20.60;99.90
13694;DHT22;6919;52.344;14.518;2023-07-02T07:07:55;20.60;99.90
13694;DHT22;6919;52.344;14.518;2023-07-02T07:10:24;20.90;99.90
13694;DHT22;6919;52.344;14.518;2023-07-02T07:12:52;21.10;99.90
13694;DHT22;6919;52.344;14.518;2023-07-02T07:15:22;20.90;99.90
13694;DHT22;6919;52.344;14.518;2023-07-02T07:17:50;20.70;99.90
13694;DHT22;6919;52.344;14.518;2023-07-02T07:20:18;20.20;99.90
13694;DHT22;6919;52.344;14.518;2023-07-02T07:22:47;19.90;99.90
13694;DHT22;6919;52.344;14.518;2023-07-02T07:25:15;19.80;99.90
13694;DHT22;6919;52.344;14.518;2023-07-02T07:27:44;19.70;99.90
13694;DHT22;6919;52.344;14.518;2023-07-02T07:30:13;20.00;99.90
13694;DHT22;6919;52.344;14.518;2023-07-02T07:32:43;20.20;99.90
13694;DHT22;6919;52.344;14.518;2023-07-02T07:35:11;20.20;99.90
13694;DHT22;6919;52.344;14.518;2023-07-02T07:37:40;20.50;99.90
13694;DHT22;6919;52.344;14.518;2023-07-02T07:40:08;20.80;99.90
13694;DHT22;6919;52.344;14.518;2023-07-02T07:42:37;20.80;99.90
13694;DHT22;6919;52.344;14.518;2023-07-02T07:45:06;21.20;99.90
13694;DHT22;6919;52.344;14.518;2023-07-02T07:47:35;21.00;99.90
13694;DHT22;6919;52.344;14.518;2023-07-02T07:50:07;20.80;99.90
13694;DHT22;6919;52.344;14.518;2023-07-02T07:52:38;20.50;99.90
13694;DHT22;6919;52.344;14.518;2023-07-02T07:55:07;20.40;99.90
13694;DHT22;6919;52.344;14.518;2023-07-02T07:57:37;20.40;99.90
13694;DHT22;6919;52.344;14.518;2023-07-02T08:00:06;20.60;99.90
13694;DHT22;6919;52.344;14.518;2023-07-02T08:02:35;21.10;99.90
13694;DHT22;6919;52.344;14.518;2023-07-02T08:05:06;21.30;99.90
13694;DHT22;6919;52.344;14.518;2023-07-02T08:07:35;21.10;99.90
13694;DHT22;6919;52.344;14.518;2023-07-02T08:10:04;21.20;99.90
13694;DHT22;6919;52.344;14.518;2023-07-02T08:12:34;21.40;98.80
13694;DHT22;6919;52.344;14.518;2023-07-02T08:15:03;21.70;97.80
13694;DHT22;6919;52.344;14.518;2023-07-02T08:17:32;21.80;92.50
13694;DHT22;6919;52.344;14.518;2023-07-02T08:20:01;22.10;90.40
13694;DHT22;6919;52.344;14.518;2023-07-02T08:22:32;22.30;88.50
13694;DHT22;6919;52.344;14.518;2023-07-02T08:25:00;22.00;89.40
13694;DHT22;6919;52.344;14.518;2023-07-02T08:27:29;21.80;90.20
13694;DHT22;6919;52.344;14.518;2023-07-02T08:29:57;21.70;88.70
13694;DHT22;6919;52.344;14.518;2023-07-02T08:32:25;21.40;90.10
13694;DHT22;6919;52.344;14.518;2023-07-02T08:34:54;21.30;83.50
13694;DHT22;6919;52.344;14.518;2023-07-02T08:37:22;21.40;87.80
13694;DHT22;6919;52.344;14.518;2023-07-02T08:39:52;21.90;88.90
13694;DHT22;6919;52.344;14.518;2023-07-02T08:42:20;22.10;88.40
13694;DHT22;6919;52.344;14.518;2023-07-02T08:44:54;22.10;76.30
13694;DHT22;6919;52.344;14.518;2023-07-02T08:47:22;21.80;69.90
13694;DHT22;6919;52.344;14.518;2023-07-02T08:49:51;21.40;73.10
13694;DHT22;6919;52.344;14.518;2023-07-02T08:52:20;21.30;76.30
13694;DHT22;6919;52.344;14.518;2023-07-02T08:54:51;21.30;77.00
13694;DHT22;6919;52.344;14.518;2023-07-02T08:57:20;21.30;77.60
13694;DHT22;6919;52.344;14.518;2023-07-02T08:59:49;21.40;83.60
13694;DHT22;6919;52.344;14.518;2023-07-02T09:02:19;21.30;80.50
13694;DHT22;6919;52.344;14.518;2023-07-02T09:05:01;21.40;82.80
13694;DHT22;6919;52.344;14.518;2023-07-02T09:07:31;21.70;78.80
13694;DHT22;6919;52.344;14.518;2023-07-02T09:10:00;21.80;77.80
13694;DHT22;6919;52.344;14.518;2023-07-02T09:12:30;21.60;77.50
13694;DHT22;6919;52.344;14.518;2023-07-02T09:15:00;21.40;78.20
13694;DHT22;6919;52.344;14.518;2023-07-02T09:17:31;21.40;80.40
13694;DHT22;6919;52.344;14.518;2023-07-02T09:20:02;21.30;83.40
13694;DHT22;6919;52.344;14.518;2023-07-02T09:22:33;21.20;87.90
13694;DHT22;6919;52.344;14.518;2023-07-02T09:25:04;20.90;90.00
13694;DHT22;6919;52.344;14.518;2023-07-02T09:27:35;20.80;91.20
13694;DHT22;6919;52.344;14.518;2023-07-02T09:30:07;20.80;91.20
13694;DHT22;6919;52.344;14.518;2023-07-02T09:32:37;20.70;93.70
13694;DHT22;6919;52.344;14.518;2023-07-02T09:35:06;20.80;93.90
13694;DHT22;6919;52.344;14.518;2023-07-02T09:37:38;20.80;93.80
13694;DHT22;6919;52.344;14.518;2023-07-02T09:40:11;20.90;93.00
13694;DHT22;6919;52.344;14.518;2023-07-02T09:42:40;20.80;94.60
13694;DHT22;6919;52.344;14.518;2023-07-02T09:45:10;20.70;95.40
13694;DHT22;6919;52.344;14.518;2023-07-02T09:47:44;20.60;95.10
13694;DHT22;6919;52.344;14.518;2023-07-02T09:50:18;20.70;95.90
13694;DHT22;6919;52.344;14.518;2023-07-02T09:52:48;20.40;97.30
13694;DHT22;6919;52.344;14.518;2023-07-02T09:55:18;20.50;98.70
13694;DHT22;6919;52.344;14.518;2023-07-02T09:57:47;20.70;99.00
13694;DHT22;6919;52.344;14.518;2023-07-02T10:00:15;21.00;99.90
13694;DHT22;6919;52.344;14.518;2023-07-02T10:02:48;20.90;97.50
13694;DHT22;6919;52.344;14.518;2023-07-02T10:05:27;20.90;99.90
13694;DHT22;6919;52.344;14.518;2023-07-02T10:07:57;20.90;98.50
13694;DHT22;6919;52.344;14.518;2023-07-02T10:10:28;20.40;99.90
13694;DHT22;6919;52.344;14.518;2023-07-02T10:12:58;20.30;99.90
13694;DHT22;6919;52.344;14.518;2023-07-02T10:15:27;19.80;99.90
13694;DHT22;6919;52.344;14.518;2023-07-02T10:18:02;19.40;99.90
13694;DHT22;6919;52.344;14.518;2023-07-02T10:20:32;19.00;99.90
13694;DHT22;6919;52.344;14.518;2023-07-02T10:23:03;18.90;99.90
13694;DHT22;6919;52.344;14.518;2023-07-02T10:25:34;18.70;99.90
13694;DHT22;6919;52.344;14.518;2023-07-02T10:28:14;18.60;99.90
13694;DHT22;6919;52.344;14.518;2023-07-02T10:30:43;18.60;99.90
13694;DHT22;6919;52.344;14.518;2023-07-02T10:33:13;18.70;99.90
13694;DHT22;6919;52.344;14.518;2023-07-02T10:35:45;18.90;99.90
13694;DHT22;6919;52.344;14.518;2023-07-02T10:38:19;19.10;99.90
13694;DHT22;6919;52.344;14.518;2023-07-02T10:40:55;19.20;99.90
13694;DHT22;6919;52.344;14.518;2023-07-02T10:43:25;19.10;99.90
13694;DHT22;6919;52.344;14.518;2023-07-02T10:45:57;19.10;99.90
13694;DHT22;6919;52.344;14.518;2023-07-02T10:48:28;19.30;99.90
13694;DHT22;6919;52.344;14.518;2023-07-02T10:50:57;19.30;99.90
13694;DHT22;6919;52.344;14.518;2023-07-02T10:53:25;19.50;99.90
13694;DHT22;6919;52.344;14.518;2023-07-02T10:55:56;19.50;99.90
13694;DHT22;6919;52.344;14.518;2023-07-02T10:58:26;19.80;99.90
13694;DHT22;6919;52.344;14.518;2023-07-02T11:00:55;19.80;99.90
13694;DHT22;6919;52.344;14.518;2023-07-02T11:03:25;19.50;99.90
13694;DHT22;6919;52.344;14.518;2023-07-02T11:05:54;19.30;99.90
13694;DHT22;6919;52.344;14.518;2023-07-02T11:08:23;19.50;99.90
13694;DHT22;6919;52.344;14.518;2023-07-02T11:11:08;19.60;99.90
13694;DHT22;6919;52.344;14.518;2023-07-02T11:13:44;19.80;99.90
13694;DHT22;6919;52.344;14.518;2023-07-02T11:16:21;20.10;99.90
13694;DHT22;6919;52.344;14.518;2023-07-02T11:18:53;19.90;99.90
13694;DHT22;6919;52.344;14.518;2023-07-02T11:21:22;20.10;99.40
13694;DHT22;6919;52.344;14.518;2023-07-02T11:23:51;20.10;95.10
13694;DHT22;6919;52.344;14.518;2023-07-02T11:26:36;19.80;97.70
13694;DHT22;6919;52.344;14.518;2023-07-02T11:29:07;20.10;91.80
13694;DHT22;6919;52.344;14.518;2023-07-02T11:31:39;20.00;87.90
13694;DHT22;6919;52.344;14.518;2023-07-02T11:34:12;20.00;88.80
13694;DHT22;6919;52.344;14.518;2023-07-02T11:36:43;20.30;89.50
13694;DHT22;6919;52.344;14.518;2023-07-02T11:39:12;20.50;86.70
13694;DHT22;6919;52.344;14.518;2023-07-02T11:41:44;20.80;82.90
13694;DHT22;6919;52.344;14.518;2023-07-02T11:44:13;20.60;88.10
13694;DHT22;6919;52.344;14.518;2023-07-02T11:46:42;21.00;85.20
13694;DHT22;6919;52.344;14.518;2023-07-02T11:49:11;21.10;88.50
13694;DHT22;6919;52.344;14.518;2023-07-02T11:51:40;21.50;85.60
13694;DHT22;6919;52.344;14.518;2023-07-02T11:54:13;21.50;85.70
13694;DHT22;6919;52.344;14.518;2023-07-02T11:56:43;21.40;85.80
13694;DHT22;6919;52.344;14.518;2023-07-02T11:59:12;21.60;83.80
13694;DHT22;6919;52.344;14.518;2023-07-02T12:01:40;22.10;81.30
13694;DHT22;6919;52.344;14.518;2023-07-02T12:04:10;22.10;81.50
13694;DHT22;6919;52.344;14.518;2023-07-02T12:06:39;22.30;80.60
13694;DHT22;6919;52.344;14.518;2023-07-02T12:09:08;22.30;76.70
13694;DHT22;6919;52.344;14.518;2023-07-02T12:11:37;21.60;80.20
13694;DHT22;6919;52.344;14.518;2023-07-02T12:14:07;21.50;78.90
13694;DHT22;6919;52.344;14.518;2023-07-02T12:16:35;21.90;87.00
13694;DHT22;6919;52.344;14.518;2023-07-02T12:19:03;22.30;82.40
13694;DHT22;6919;52.344;14.518;2023-07-02T12:21:32;22.40;78.50
13694;DHT22;6919;52.344;14.518;2023-07-02T12:24:00;22.60;78.00
13694;DHT22;6919;52.344;14.518;2023-07-02T12:26:28;22.70;79.00
13694;DHT22;6919;52.344;14.518;2023-07-02T12:28:57;23.00;77.00
13694;DHT22;6919;52.344;14.518;2023-07-02T12:31:26;22.60;78.10
13694;DHT22;6919;52.344;14.518;2023-07-02T12:33:55;22.40;79.20
13694;DHT22;6919;52.344;14.518;2023-07-02T12:36:24;22.10;75.80
13694;DHT22;6919;52.344;14.518;2023-07-02T12:38:53;21.90;73.80
13694;DHT22;6919;52.344;14.518;2023-07-02T12:41:21;21.80;73.00
13694;DHT22;6919;52.344;14.518;2023-07-02T12:43:49;21.80;76.40
13694;DHT22;6919;52.344;14.518;2023-07-02T12:46:17;21.80;74.60
13694;DHT22;6919;52.344;14.518;2023-07-02T12:48:47;22.20;75.40
13694;DHT22;6919;52.344;14.518;2023-07-02T12:51:16;22.80;74.00
13694;DHT22;6919;52.344;14.518;2023-07-02T12:53:46;23.10;68.90
13694;DHT22;6919;52.344;14.518;2023-07-02T12:56:14;23.20;67.60
13694;DHT22;6919;52.344;14.518;2023-07-02T12:58:42;22.80;62.00
13694;DHT22;6919;52.344;14.518;2023-07-02T13:01:10;22.30;61.60
13694;DHT22;6919;52.344;14.518;2023-07-02T13:03:44;22.30;63.10
13694;DHT22;6919;52.344;14.518;2023-07-02T13:06:15;23.00;58.50
13694;DHT22;6919;52.344;14.518;2023-07-02T13:08:43;23.90;52.80
13694;DHT22;6919;52.344;14.518;2023-07-02T13:11:11;24.60;50.70
13694;DHT22;6919;52.344;14.518;2023-07-02T13:13:41;25.00;47.90
13694;DHT22;6919;52.344;14.518;2023-07-02T13:16:09;25.50;44.10
13694;DHT22;6919;52.344;14.518;2023-07-02T13:18:37;25.50;41.10
13694;DHT22;6919;52.344;14.518;2023-07-02T13:21:07;24.80;40.10
13694;DHT22;6919;52.344;14.518;2023-07-02T13:23:35;24.30;41.10
13694;DHT22;6919;52.344;14.518;2023-07-02T13:26:04;24.50;40.10
13694;DHT22;6919;52.344;14.518;2023-07-02T13:28:32;24.70;38.20
13694;DHT22;6919;52.344;14.518;2023-07-02T13:31:00;24.40;37.70
13694;DHT22;6919;52.344;14.518;2023-07-02T13:33:29;24.30;37.30
13694;DHT22;6919;52.344;14.518;2023-07-02T13:35:58;24.10;36.40
13694;DHT22;6919;52.344;14.518;2023-07-02T13:38:27;24.00;35.30
13694;DHT22;6919;52.344;14.518;2023-07-02T13:40:56;24.10;34.80
13694;DHT22;6919;52.344;14.518;2023-07-02T13:43:25;24.20;33.40
13694;DHT22;6919;52.344;14.518;2023-07-02T13:45:54;24.10;34.00
13694;DHT22;6919;52.344;14.518;2023-07-02T13:48:22;24.70;33.70
13694;DHT22;6919;52.344;14.518;2023-07-02T13:50:54;25.00;32.50
13694;DHT22;6919;52.344;14.518;2023-07-02T13:53:22;25.00;32.20
13694;DHT22;6919;52.344;14.518;2023-07-02T13:55:52;25.30;32.30
13694;DHT22;6919;52.344;14.518;2023-07-02T13:58:20;24.90;31.50
13694;DHT22;6919;52.344;14.518;2023-07-02T14:00:57;25.10;32.20
13694;DHT22;6919;52.344;14.518;2023-07-02T14:03:26;24.80;31.60
13694;DHT22;6919;52.344;14.518;2023-07-02T14:05:54;24.30;33.20
13694;DHT22;6919;52.344;14.518;2023-07-02T14:08:22;24.30;33.10
13694;DHT22;6919;52.344;14.518;2023-07-02T14:10:51;24.80;32.10
13694;DHT22;6919;52.344;14.518;2023-07-02T14:13:19;25.30;31.80
13694;DHT22;6919;52.344;14.518;2023-07-02T14:15:47;24.20;32.40
13694;DHT22;6919;52.344;14.518;2023-07-02T14:18:18;24.70;34.80
13694;DHT22;6919;52.344;14.518;2023-07-02T14:20:46;24.40;32.90
13694;DHT22;6919;52.344;14.518;2023-07-02T14:23:14;24.50;30.90
13694;DHT22;6919;52.344;14.518;2023-07-02T14:25:43;24.50;30.80
13694;DHT22;6919;52.344;14.518;2023-07-02T14:28:11;24.90;32.40
13694;DHT22;6919;52.344;14.518;2023-07-02T14:30:39;25.60;31.40
13694;DHT22;6919;52.344;14.518;2023-07-02T14:33:09;25.20;29.30
13694;DHT22;6919;52.344;14.518;2023-07-02T14:35:39;25.00;29.10
13694;DHT22;6919;52.344;14.518;2023-07-02T14:38:07;24.50;29.90
13694;DHT22;6919;52.344;14.518;2023-07-02T14:40:36;24.60;29.70
13694;DHT22;6919;52.344;14.518;2023-07-02T14:43:04;25.50;30.00
13694;DHT22;6919;52.344;14.518;2023-07-02T14:45:33;26.10;29.40
13694;DHT22;6919;52.344;14.518;2023-07-02T14:48:02;26.20;28.80
13694;DHT22;6919;52.344;14.518;2023-07-02T14:50:30;26.70;29.10
13694;DHT22;6919;52.344;14.518;2023-07-02T14:53:00;27.30;27.50
13694;DHT22;6919;52.344;14.518;2023-07-02T14:55:28;27.50;27.60
13694;DHT22;6919;52.344;14.518;2023-07-02T14:57:56;27.40;27.20
13694;DHT22;6919;52.344;14.518;2023-07-02T15:00:25;27.60;27.60
13694;DHT22;6919;52.344;14.518;2023-07-02T15:02:53;26.60;26.00
13694;DHT22;6919;52.344;14.518;2023-07-02T15:05:21;25.90;26.90
13694;DHT22;6919;52.344;14.518;2023-07-02T15:07:50;25.70;26.50
13694;DHT22;6919;52.344;14.518;2023-07-02T15:10:20;25.60;27.50
13694;DHT22;6919;52.344;14.518;2023-07-02T15:12:48;24.90;27.60
13694;DHT22;6919;52.344;14.518;2023-07-02T15:15:17;25.30;28.20
13694;DHT22;6919;52.344;14.518;2023-07-02T15:17:45;25.40;28.70
13694;DHT22;6919;52.344;14.518;2023-07-02T15:20:13;24.70;26.60
13694;DHT22;6919;52.344;14.518;2023-07-02T15:22:42;24.70;28.10
13694;DHT22;6919;52.344;14.518;2023-07-02T15:25:10;24.70;28.10
13694;DHT22;6919;52.344;14.518;2023-07-02T15:27:40;24.70;28.70
13694;DHT22;6919;52.344;14.518;2023-07-02T15:30:08;24.50;27.50
13694;DHT22;6919;52.344;14.518;2023-07-02T15:32:37;24.00;28.10
13694;DHT22;6919;52.344;14.518;2023-07-02T15:35:06;23.90;29.90
13694;DHT22;6919;52.344;14.518;2023-07-02T15:37:38;23.80;29.40
13694;DHT22;6919;52.344;14.518;2023-07-02T15:40:09;23.70;28.80
13694;DHT22;6919;52.344;14.518;2023-07-02T15:42:40;23.90;29.60